LFQW weather

Vesoul-Frotey Airport
Vesoul/Frotey, Franche-Comté, France

Public forecast

Using degrees Celsius for public forecast. Weather courtesy of forecast.io.

METAR (pilot weather report)

Closest report is Luxeuil-Saint-Sauveur (BA 116) Air Base, 10.9 nm (20.1 km) NE. Retrieved 2019/09/24 08:30 UTC (9 minutes ago):

LFSX 240830Z AUTO 11007KT CAVOK 11/10 Q1013

TAF (pilot weather forecast)

Closest forecast is Luxeuil-Saint-Sauveur (BA 116) Air Base, 10.9 nm (20.1 km) NE. Retrieved 2019/09/24 09:00 UTC (0 seconds ago):

TAF LFSX 240800Z 2409/2509 09005KT CAVOK BECMG 2409/2411 21010KT TEMPO 2412/2503 21010G20KT 2000 SHRA BKN020TCU BECMG 2414/2416 4000 -RA BKN014 PROB40 TEMPO 2416/2501 BKN005